Portada
METAR-TAF:

METAR-TAF

Aeroports :

Oxford, Anglaterra

latitud: 51-50-13N, longitud: 1-19-12W, altitud: 82 m

Observació

L'informe es va fer fa 1 hora i 45 minuts, a les 18:50 UTC
Vent 7 kt del Est
Temperatura 21°C
Humitat 30%
Pressió 1024 hPa
Visibilitat 10 km o més
sense núvols per sota de 1500 mi sense presència de cumulonimbus.

METAR: EGTK 291850Z 09007KT CAVOK 21/03 Q1024

Hora: 21:35 (20:35 UTC)

Pronòstic

L'informe es va fer fa 6 hores i 27 minuts, a les 14:08 UTC
Pronòstic vàlid del 29 a les 15 UTC al 29 a les 18 UTC
Vent 8 kt del Est
Visibilitat 10 km o més
sense núvols per sota de 1500 mi sense presència de cumulonimbus.

TAF: EGTK 291408Z 2915/2918 09008KT CAVOK

Observacions i pronòstics meteorològics de més de 4000 aeroports (METAR i TAF).

Les estacions disponibles són els punts grocs i vermells al mapa.

Posi el ratolí al punt desitjat per veure el nom de l'estació.

Feu clic per veure les observacions i els pronòstics meteorològics.

Per canviar el mapa: feu clic els botons verds amb una creu de color negre per apropar; al botó verd amb un guió per allunyar la imatge; o en les fletxes verdes per a mapes adjacents.


METAR-TAF: